Rochelle, IL (61068)

3:29 PM CDT on September 01, 2015 (GMT -0500)
WB9NJJ | | Change Station
CLOSE
Current Station
Personal Weather Station
Location: Rochelle, IL
Elevation: 810 ft
Nearby Weather Stations

Elev 810 ft 41.94 °N, 89.15 °W | Updated 0 second ago

Partly Cloudy
Partly Cloudy
89.2 °F
Feels Like 94 °F
N
2.7
Wind Variable Wind from South
Gusts 8.1 mph

Today
High -- | Low -- °F
--% Chance of Precip.
Yesterday
High -- | Low -- °F
Precip. -- in
6:21 AM 7:30 PM
Waning Gibbous, 86% visible
Pressure 30.01 in
Visibility 10.0 miles
Clouds Clear
Heat Index 94 °F
Dew Point 70 °F
Humidity 53%
Rainfall 0.00 in
Snow Depth Not available.
UV 6 out of 12
Pollen 11.00 out of 12
Air Quality Not available.
Flu Activity Not available.
METAR KRPJ 012015Z AUTO 22008KT 10SM CLR 31/23 A3001 RMK AO2 T03070225
Pressure 30.01 in
Visibility 10.0 miles
Clouds Clear
Heat Index 94 °F
Dew Point 70 °F
Humidity 53%
Rainfall 0.00 in
Snow Depth Not available.
UV 6 out of 12
Pollen 11.00 out of 12
Air Quality Not available.
Flu Activity Not available.
METAR KRPJ 012015Z AUTO 22008KT 10SM CLR 31/23 A3001 RMK AO2 T03070225

10-Day Weather Forecast

×

Almanac

Astronomy

Sep. 01, 2015 Rise Set
Actual Time
Civil Twilight
Nautical Twilight
Astronomical Twilight
Moon
Length of Visible Light
Length of Day
Tomorrow will be .
, % of the Moon is Illuminated

Today's Extremes

State Highs State Lows

Community

WunderPhotos

Upload Photos

1,851,605 photos uploaded!

WunderBlogs® & News

Nearby

Air Quality

  Air Quality AQ Index Pollutant
Not available.

Snow Depth

Station Depth Elevation

Earthquake Activity

City Distance Mag. Time & Date
Minimum magnitude displayed is 2.5.

Coastal Water Temperatures

Place Temperature

Stations

Nearby Weather Stations

Station Location Temp. Windchill Dew Point Humidity Wind Precip. Elev Updated Type